Terminal Aerodrome Forecast
Issued by NWS

Home | Current Version | Previous Version | Text Only | Print | Product List | Glossary On
Versions: 1 2 3 4 5 6 7 8 9 10 11 12 13 14 15 16 17 18 19 20
000
FTAK31 PAJN 142300
TAFAPG
TAF
PAPG 142328Z 1500/1524 07004KT P6SM SCT150
     FM150900 00000KT P6SM VCFG FEW003 FEW100
      TEMPO 1514/1518 1/2SM FG BKN002
     FM151800 06005KT P6SM BCFG SCT002 SCT100
     FM152000 07005KT P6SM SCT100
      AMD LTD TO CLD VIS AND WIND 1506/1515=

USA.gov is the U.S. government's official web portal to all federal, state and local government web resources and services.